Wednesday, November 22, 2017, 7:58 AM EST
Back to Local

KBGR, Bangor Int'l Airport

Location: Bangor, ME, United States Lat: 44.8
Local Time: 7:58 AM EST (12:58 GMT) Lon: -68.817
Time Zone: US/Eastern Elev: 193 ft

Show me the last for .
Show Coded

Time T Td Feel RH Dir Speed Gust Alt SLP Vis Weather Sky Remarks
2017-11-22 06:53 36 34 - 92 - Calm - 29.97 29.98 10 BKN150 OVC250 6-hr Min Temp (7am): 33.1°F
6-hr Max Temp (7am): 43.0°F
2017-11-22 05:53 37 35 - 92 - Calm - 29.99 29.99 10 BKN200 None
2017-11-22 04:53 37 34 - 88 - Calm - 29.98 29.98 10 SCT200 None
2017-11-22 03:53 39 34 35 81 190° 6 - 29.97 29.97 10 FEW200 None
2017-11-22 02:53 41 35 38 79 190° 5 - 29.97 29.97 10 CLR None
2017-11-22 01:53 35 32 32 88 160° 3 - 29.96 29.96 10 CLR None
2017-11-22 00:53 43 36 40 76 180° 5 - 29.97 29.97 10 CLR 6-hr Min Temp (1am): 39.0°F
6-hr Max Temp (1am): 48.9°F
2017-11-21 23:53 44 36 40 72 180° 7 - 29.95 29.96 10 FEW200 24-hr Min Temp (12am): 12.9°F
24-hr Max Temp (12am): 50.0°F
2017-11-21 22:53 48 37 43 65 200° 10 - 29.95 29.96 10 FEW250 None
2017-11-21 21:53 49 36 44 60 190° 12 - 29.95 29.95 10 FEW250 None
2017-11-21 20:53 49 37 45 63 200° 10 - 29.95 29.95 10 FEW250 None
2017-11-21 19:53 48 37 44 65 190° 9 - 29.93 29.93 10 FEW250 None
2017-11-21 18:53 47 37 42 68 190° 10 - 29.93 29.93 10 FEW250 6-hr Min Temp (7pm): 44.1°F
6-hr Max Temp (7pm): 50.0°F
2017-11-21 17:53 46 36 41 67 190° 12 - 29.93 29.93 10 FEW250 None
2017-11-21 16:53 45 32 41 60 180° 7 - 29.93 29.93 10 FEW250 None
2017-11-21 15:53 47 30 42 51 180° 10 - 29.93 29.94 10 SCT250 None
2017-11-21 14:53 49 33 44 54 180° 13 - 29.93 29.93 10 SCT250 None
2017-11-21 13:53 49 34 43 56 180° 17 - 29.93 29.93 10 FEW250 None
2017-11-21 12:53 47 34 42 60 190° 12 - 29.96 29.97 10 FEW100 FEW250 6-hr Min Temp (1pm): 19.0°F
6-hr Max Temp (1pm): 46.9°F
2017-11-21 11:53 42 30 35 62 190° 15 - 29.99 30.00 10 FEW100 FEW250 None
2017-11-21 10:53 36 24 29 61 180° 9 - 30.03 30.03 10 FEW100 FEW250 None
2017-11-21 09:53 31 19 23 60 180° 8 - 30.06 30.08 10 FEW100 FEW250 None
2017-11-21 08:53 26 15 18 62 180° 7 - 30.09 30.10 10 FEW100 SCT250 None

Support USWX by starting your Amazon purchase here.